createdAt,value
2018-05-09T00:00:37.078Z,60.60
2018-05-09T00:03:06.425Z,60.00
2018-05-09T00:05:35.240Z,59.20
2018-05-09T00:08:04.094Z,58.70
2018-05-09T00:10:33.695Z,58.70
2018-05-09T00:13:02.437Z,58.70
2018-05-09T00:15:33.709Z,59.60
2018-05-09T00:18:02.509Z,59.90
2018-05-09T00:20:31.247Z,59.80
2018-05-09T00:22:59.990Z,59.90
2018-05-09T00:25:29.433Z,60.90
2018-05-09T00:27:58.208Z,60.70
2018-05-09T00:30:27.024Z,62.40
2018-05-09T00:32:56.669Z,62.10
2018-05-09T00:35:26.255Z,61.70
2018-05-09T00:37:55.719Z,60.50
2018-05-09T00:40:25.927Z,60.90
2018-05-09T00:42:54.714Z,59.90
2018-05-09T00:45:24.252Z,58.80
2018-05-09T00:47:53.016Z,61.30
2018-05-09T00:50:22.430Z,60.90
2018-05-09T00:52:51.206Z,60.90
2018-05-09T00:55:20.211Z,60.20
2018-05-09T00:57:48.979Z,60.50
2018-05-09T01:00:19.041Z,59.20
2018-05-09T01:02:47.774Z,59.20
2018-05-09T01:05:16.538Z,58.50
2018-05-09T01:07:46.485Z,58.70
2018-05-09T01:10:15.218Z,59.10
2018-05-09T01:12:49.487Z,59.20
2018-05-09T01:15:22.756Z,58.90
2018-05-09T01:17:53.404Z,59.10
2018-05-09T01:20:27.927Z,58.50
2018-05-09T01:25:42.954Z,58.30
2018-05-09T01:28:17.140Z,59.70
2018-05-09T01:30:50.923Z,59.20
2018-05-09T01:33:25.239Z,59.30
2018-05-09T01:35:59.504Z,60.10
2018-05-09T01:38:35.446Z,60.10
2018-05-09T01:41:10.021Z,60.40
2018-05-09T01:43:42.926Z,60.40
2018-05-09T01:46:17.281Z,59.80
2018-05-09T01:48:50.572Z,59.80
2018-05-09T01:51:26.362Z,59.40
2018-05-09T01:54:02.340Z,58.70
2018-05-09T01:56:35.746Z,58.50
2018-05-09T01:59:11.547Z,58.70
2018-05-09T02:01:49.785Z,59.00
2018-05-09T02:04:25.546Z,58.50
2018-05-09T02:06:58.553Z,58.50
2018-05-09T02:09:33.714Z,58.20
2018-05-09T02:12:05.095Z,58.80
2018-05-09T02:14:36.582Z,58.20
2018-05-09T02:17:06.898Z,59.10
2018-05-09T02:19:44.345Z,59.30
2018-05-09T02:22:17.354Z,59.00
2018-05-09T02:24:54.176Z,59.80
2018-05-09T02:27:29.976Z,59.20
2018-05-09T02:30:05.614Z,59.10
2018-05-09T02:32:40.802Z,59.10
2018-05-09T02:35:12.974Z,58.50
2018-05-09T02:37:44.568Z,59.70
2018-05-09T02:40:17.914Z,59.60
2018-05-09T02:42:51.422Z,58.50
2018-05-09T02:45:24.736Z,58.80
2018-05-09T02:47:59.884Z,59.70
2018-05-09T02:50:33.646Z,59.00
2018-05-09T02:53:09.565Z,59.50
2018-05-09T02:55:41.981Z,59.50
2018-05-09T02:58:16.566Z,59.30
2018-05-09T03:00:52.995Z,60.30
2018-05-09T03:03:24.671Z,62.20
2018-05-09T03:05:56.975Z,62.70
2018-05-09T03:08:33.834Z,62.10
2018-05-09T03:11:07.976Z,62.70
2018-05-09T03:13:40.635Z,62.10
2018-05-09T03:16:13.939Z,60.80
2018-05-09T03:18:47.173Z,59.90
2018-05-09T03:21:16.740Z,59.80
2018-05-09T03:23:45.518Z,59.80
2018-05-09T03:26:14.275Z,61.20
2018-05-09T03:28:44.927Z,64.20
2018-05-09T03:31:14.095Z,64.20
2018-05-09T03:33:44.692Z,61.20
2018-05-09T03:36:14.231Z,61.20
2018-05-09T03:38:45.057Z,61.20
2018-05-09T03:41:14.146Z,61.20
2018-05-09T03:43:42.919Z,60.90
2018-05-09T03:46:11.771Z,59.80
2018-05-09T03:48:40.588Z,60.60
2018-05-09T03:51:09.399Z,59.40
2018-05-09T03:53:38.235Z,58.60
2018-05-09T03:56:07.764Z,58.90
2018-05-09T03:58:36.510Z,58.80
2018-05-09T04:01:06.118Z,58.60
2018-05-09T04:03:47.261Z,59.30
2018-05-09T04:06:27.652Z,59.20
2018-05-09T04:09:08.133Z,60.70
2018-05-09T04:11:37.632Z,60.20
2018-05-09T04:14:06.462Z,60.10
2018-05-09T04:16:35.275Z,59.70
2018-05-09T04:19:04.102Z,59.40
2018-05-09T04:21:33.740Z,59.20
2018-05-09T04:24:02.465Z,59.20
2018-05-09T04:26:31.216Z,58.90
2018-05-09T04:29:00.343Z,58.70
2018-05-09T04:31:29.077Z,58.30
2018-05-09T04:33:57.865Z,57.60
2018-05-09T04:36:27.394Z,58.80
2018-05-09T04:38:56.131Z,58.80
2018-05-09T04:41:24.916Z,58.50
2018-05-09T04:43:53.687Z,58.50
2018-05-09T04:46:22.489Z,57.90
2018-05-09T04:48:52.038Z,57.90
2018-05-09T04:51:20.780Z,57.90
2018-05-09T04:53:49.574Z,57.50
2018-05-09T04:56:18.390Z,57.40
2018-05-09T04:58:47.249Z,56.80
2018-05-09T05:01:16.012Z,56.20
2018-05-09T05:03:45.608Z,57.10
2018-05-09T05:06:14.803Z,57.10
2018-05-09T05:08:43.560Z,57.10
2018-05-09T05:11:12.382Z,57.00
2018-05-09T05:13:41.177Z,56.60
2018-05-09T05:16:09.948Z,57.00
2018-05-09T05:18:39.531Z,56.70
2018-05-09T05:21:08.272Z,56.70
2018-05-09T05:23:37.040Z,56.70
2018-05-09T05:26:05.806Z,56.40
2018-05-09T05:28:35.334Z,56.20
2018-05-09T05:31:04.080Z,56.20
2018-05-09T05:33:32.922Z,56.10
2018-05-09T05:36:01.694Z,56.20
2018-05-09T05:38:32.215Z,56.00
2018-05-09T05:41:01.017Z,55.90
2018-05-09T05:43:30.580Z,55.30
2018-05-09T05:45:59.330Z,55.40
2018-05-09T05:48:28.126Z,55.10
2018-05-09T05:50:56.865Z,55.40
2018-05-09T05:53:26.490Z,55.10
2018-05-09T05:55:55.255Z,55.10
2018-05-09T05:58:24.011Z,55.20
2018-05-09T06:00:52.746Z,55.60
2018-05-09T06:03:22.276Z,56.00
2018-05-09T06:05:51.020Z,56.10
2018-05-09T06:08:19.768Z,55.50
2018-05-09T06:10:48.530Z,55.20
2018-05-09T06:13:17.579Z,54.80
2018-05-09T06:15:46.327Z,55.10
2018-05-09T06:18:15.138Z,55.40
2018-05-09T06:20:43.892Z,53.60
2018-05-09T06:23:12.645Z,53.70
2018-05-09T06:25:41.543Z,53.60
2018-05-09T06:28:10.307Z,53.20
2018-05-09T06:30:39.289Z,53.30
2018-05-09T06:33:08.181Z,53.50
2018-05-09T06:35:36.979Z,53.00
2018-05-09T06:38:05.714Z,53.50
2018-05-09T06:40:34.516Z,53.00
2018-05-09T06:43:03.538Z,53.20
2018-05-09T06:45:32.290Z,52.30
2018-05-09T06:48:01.787Z,52.30
2018-05-09T06:50:31.471Z,52.20
2018-05-09T06:53:00.195Z,50.50
2018-05-09T06:55:29.031Z,50.40
2018-05-09T06:57:57.769Z,50.60
2018-05-09T07:00:26.497Z,51.30
2018-05-09T07:02:55.343Z,52.50
2018-05-09T07:05:24.093Z,52.10
2018-05-09T07:07:52.830Z,51.60
2018-05-09T07:10:21.606Z,51.10
2018-05-09T07:12:50.368Z,52.20
2018-05-09T07:15:19.136Z,51.40
2018-05-09T07:17:48.900Z,50.80
2018-05-09T07:20:18.170Z,50.70
2018-05-09T07:22:48.000Z,50.20
2018-05-09T07:25:16.812Z,49.50
2018-05-09T07:27:45.542Z,50.70
2018-05-09T07:30:14.307Z,50.40
2018-05-09T07:32:43.094Z,49.80
2018-05-09T07:35:11.841Z,50.00
2018-05-09T07:37:40.631Z,49.50
2018-05-09T07:40:09.408Z,48.70
2018-05-09T07:42:38.167Z,49.20
2018-05-09T07:45:06.914Z,49.80
2018-05-09T07:47:35.722Z,49.10
2018-05-09T07:50:04.513Z,47.70
2018-05-09T07:52:33.297Z,48.20
2018-05-09T07:55:02.148Z,49.10
2018-05-09T07:57:30.873Z,48.20
2018-05-09T07:59:59.651Z,47.60
2018-05-09T08:02:28.455Z,46.30
2018-05-09T08:04:57.174Z,46.10
2018-05-09T08:07:26.108Z,45.80
2018-05-09T08:09:54.903Z,44.10
2018-05-09T08:12:23.632Z,44.70
2018-05-09T08:14:52.535Z,46.70
2018-05-09T08:17:21.462Z,44.80
2018-05-09T08:19:50.367Z,45.10
2018-05-09T08:22:19.133Z,43.90
2018-05-09T08:24:48.624Z,43.30
2018-05-09T08:27:18.462Z,42.00
2018-05-09T08:29:47.253Z,43.10
2018-05-09T08:32:16.142Z,42.60
2018-05-09T08:34:44.896Z,43.20
2018-05-09T08:37:13.877Z,42.70
2018-05-09T08:39:42.682Z,42.30
2018-05-09T08:42:11.446Z,40.60
2018-05-09T08:44:40.216Z,39.90
2018-05-09T08:47:08.994Z,40.10
2018-05-09T08:49:37.754Z,39.80
2018-05-09T08:52:06.489Z,39.20
2018-05-09T08:54:35.341Z,39.90
2018-05-09T08:57:04.192Z,39.70
2018-05-09T08:59:33.035Z,38.70
2018-05-09T09:02:02.600Z,38.30
2018-05-09T09:04:31.365Z,38.30
2018-05-09T09:07:00.125Z,38.20
2018-05-09T09:09:28.914Z,37.10
2018-05-09T09:11:57.706Z,36.70
2018-05-09T09:14:26.492Z,37.60
2018-05-09T09:16:55.248Z,36.20
2018-05-09T09:19:23.994Z,36.60
2018-05-09T09:21:52.781Z,39.00
2018-05-09T09:24:21.606Z,39.50
2018-05-09T09:26:50.337Z,35.30
2018-05-09T09:29:19.251Z,36.00
2018-05-09T09:31:49.025Z,40.00
2018-05-09T09:34:19.620Z,34.00
2018-05-09T09:36:49.186Z,34.00
2018-05-09T09:39:17.972Z,36.20
2018-05-09T09:41:46.742Z,36.40
2018-05-09T09:44:15.554Z,35.30
2018-05-09T09:46:44.669Z,37.10
2018-05-09T09:49:13.480Z,37.50
2018-05-09T09:51:42.292Z,37.00
2018-05-09T09:54:11.108Z,36.80
2018-05-09T09:56:40.337Z,33.60
2018-05-09T09:59:09.114Z,34.00
2018-05-09T10:01:38.030Z,36.20
2018-05-09T10:04:06.665Z,34.80
2018-05-09T10:06:36.372Z,34.10
2018-05-09T10:09:05.959Z,33.40
2018-05-09T10:11:34.732Z,34.60
2018-05-09T10:14:03.681Z,36.20
2018-05-09T10:16:32.436Z,35.70
2018-05-09T10:19:01.195Z,33.90
2018-05-09T10:21:29.976Z,35.60
2018-05-09T10:23:58.768Z,36.30
2018-05-09T10:26:27.551Z,34.20
2018-05-09T10:28:56.427Z,36.20
2018-05-09T10:31:25.314Z,37.10
2018-05-09T10:33:54.346Z,35.80
2018-05-09T10:36:23.169Z,35.20
2018-05-09T10:38:51.977Z,33.40
2018-05-09T10:41:20.753Z,33.90
2018-05-09T10:43:50.777Z,35.50
2018-05-09T10:46:19.600Z,35.40
2018-05-09T10:48:48.364Z,34.70
2018-05-09T10:51:17.158Z,34.40
2018-05-09T10:53:46.663Z,36.90
2018-05-09T10:56:15.442Z,37.00
2018-05-09T10:58:45.029Z,35.50
2018-05-09T11:01:13.832Z,35.50
2018-05-09T11:03:42.633Z,33.30
2018-05-09T11:06:11.425Z,34.10
2018-05-09T11:08:40.191Z,35.10
2018-05-09T11:11:09.053Z,33.60
2018-05-09T11:13:37.993Z,33.60
2018-05-09T11:16:07.556Z,37.70
2018-05-09T11:18:36.316Z,37.60
2018-05-09T11:21:05.156Z,35.00
2018-05-09T11:23:33.900Z,33.40
2018-05-09T11:26:02.666Z,31.40
2018-05-09T11:28:31.540Z,33.70
2018-05-09T11:31:00.523Z,33.00
2018-05-09T11:33:29.269Z,33.50
2018-05-09T11:35:58.146Z,34.70
2018-05-09T11:38:26.927Z,35.50
2018-05-09T11:40:55.673Z,33.90
2018-05-09T11:43:24.441Z,35.10
2018-05-09T11:45:53.177Z,35.50
2018-05-09T11:48:21.988Z,32.80
2018-05-09T11:50:51.669Z,32.50
2018-05-09T11:53:20.505Z,33.80
2018-05-09T11:55:50.101Z,33.00
2018-05-09T11:58:19.007Z,33.50
2018-05-09T12:00:47.746Z,33.60
2018-05-09T12:03:16.672Z,33.20
2018-05-09T12:05:45.442Z,33.50
2018-05-09T12:08:14.173Z,32.90
2018-05-09T12:10:43.064Z,33.10
2018-05-09T12:13:11.703Z,33.00
2018-05-09T12:15:40.488Z,31.60
2018-05-09T12:18:09.375Z,32.20
2018-05-09T12:20:38.913Z,31.60
2018-05-09T12:23:07.713Z,31.60
2018-05-09T12:25:36.502Z,33.00
2018-05-09T12:28:05.353Z,30.90
2018-05-09T12:30:34.129Z,31.10
2018-05-09T12:33:03.944Z,30.10
2018-05-09T12:35:33.496Z,33.90
2018-05-09T12:38:02.363Z,33.80
2018-05-09T12:40:31.115Z,31.70
2018-05-09T12:42:59.919Z,32.30
2018-05-09T12:45:28.706Z,31.30
2018-05-09T12:47:57.455Z,31.80
2018-05-09T12:50:26.292Z,31.90
2018-05-09T12:52:55.068Z,33.60
2018-05-09T12:55:24.707Z,32.80
2018-05-09T12:57:54.338Z,31.90
2018-05-09T13:00:23.071Z,31.90
2018-05-09T13:02:51.847Z,31.20
2018-05-09T13:05:20.891Z,32.90
2018-05-09T13:07:49.785Z,30.40
2018-05-09T13:10:18.572Z,31.00
2018-05-09T13:12:47.425Z,32.60
2018-05-09T13:15:16.176Z,32.10
2018-05-09T13:17:44.965Z,32.40
2018-05-09T13:20:13.699Z,31.70
2018-05-09T13:22:43.271Z,33.40
2018-05-09T13:25:12.048Z,33.40
2018-05-09T13:27:40.843Z,32.20
2018-05-09T13:30:09.619Z,33.10
2018-05-09T13:32:38.394Z,31.60
2018-05-09T13:35:08.256Z,30.30
2018-05-09T13:37:37.041Z,30.30
2018-05-09T13:40:05.908Z,30.00
2018-05-09T13:42:35.462Z,30.00
2018-05-09T13:45:04.267Z,30.00
2018-05-09T13:47:33.031Z,28.90
2018-05-09T13:50:01.807Z,29.20
2018-05-09T13:52:30.596Z,30.20
2018-05-09T13:54:59.394Z,29.20
2018-05-09T13:57:28.170Z,30.20
2018-05-09T13:59:56.921Z,29.60
2018-05-09T14:02:25.746Z,28.60
2018-05-09T14:04:54.517Z,29.50
2018-05-09T14:07:23.295Z,28.40
2018-05-09T14:09:52.135Z,29.40
2018-05-09T14:12:21.428Z,29.90
2018-05-09T14:14:51.233Z,30.30
2018-05-09T14:17:19.970Z,28.60
2018-05-09T14:19:48.756Z,29.50
2018-05-09T14:22:17.493Z,29.50
2018-05-09T14:24:46.285Z,28.70
2018-05-09T14:27:15.204Z,29.10
2018-05-09T14:29:43.987Z,30.10
2018-05-09T14:32:12.879Z,30.60
2018-05-09T14:34:41.583Z,29.50
2018-05-09T14:37:11.134Z,31.10
2018-05-09T14:39:39.946Z,31.10
2018-05-09T14:42:08.890Z,29.10
2018-05-09T14:44:37.641Z,29.60
2018-05-09T14:47:06.407Z,29.80
2018-05-09T14:49:35.289Z,28.80
2018-05-09T14:52:04.033Z,29.10
2018-05-09T14:54:32.933Z,28.60
2018-05-09T14:57:01.629Z,29.20
2018-05-09T14:59:30.367Z,29.80
2018-05-09T15:01:59.129Z,31.00
2018-05-09T15:04:27.888Z,29.60
2018-05-09T15:06:57.565Z,29.30
2018-05-09T15:09:26.372Z,29.10
2018-05-09T15:11:55.888Z,30.20
2018-05-09T15:14:25.412Z,31.70
2018-05-09T15:16:54.230Z,31.00
2018-05-09T15:19:22.982Z,30.90
2018-05-09T15:21:52.144Z,29.80
2018-05-09T15:24:20.900Z,31.20
2018-05-09T15:26:49.655Z,31.70
2018-05-09T15:29:18.387Z,29.90
2018-05-09T15:31:47.160Z,31.00
2018-05-09T15:34:16.027Z,32.50
2018-05-09T15:36:44.801Z,32.40
2018-05-09T15:39:13.565Z,32.90
2018-05-09T15:41:42.327Z,33.40
2018-05-09T15:44:11.516Z,34.10
2018-05-09T15:46:40.240Z,33.80
2018-05-09T15:49:09.112Z,33.70
2018-05-09T15:51:37.935Z,32.80
2018-05-09T15:54:07.435Z,34.10
2018-05-09T15:56:36.994Z,34.60
2018-05-09T15:59:05.764Z,34.60
2018-05-09T16:01:34.493Z,34.50
2018-05-09T16:04:03.254Z,33.20
2018-05-09T16:06:32.981Z,33.10
2018-05-09T16:09:01.741Z,33.30
2018-05-09T16:11:30.496Z,32.80
2018-05-09T16:13:59.244Z,31.60
2018-05-09T16:16:28.049Z,32.10
2018-05-09T16:18:56.859Z,33.70
2018-05-09T16:21:25.616Z,32.00
2018-05-09T16:23:54.401Z,31.10
2018-05-09T16:26:23.483Z,32.70
2018-05-09T16:28:53.450Z,34.40
2018-05-09T16:31:22.613Z,33.70
2018-05-09T16:33:51.404Z,33.60
2018-05-09T16:36:21.073Z,33.80
2018-05-09T16:38:49.835Z,34.70
2018-05-09T16:41:18.583Z,34.10
2018-05-09T16:43:47.351Z,34.90
2018-05-09T16:46:16.064Z,34.50
2018-05-09T16:48:44.826Z,35.00
2018-05-09T16:51:13.575Z,35.30
2018-05-09T16:53:42.364Z,35.10
2018-05-09T16:56:11.234Z,34.80
2018-05-09T16:58:39.976Z,34.20
2018-05-09T17:01:08.745Z,34.50
2018-05-09T17:03:37.481Z,33.50
2018-05-09T17:06:06.222Z,32.90
2018-05-09T17:08:35.720Z,31.20
2018-05-09T17:11:05.365Z,32.20
2018-05-09T17:13:34.885Z,33.80
2018-05-09T17:16:04.438Z,35.10
2018-05-09T17:18:33.205Z,35.10
2018-05-09T17:21:01.969Z,35.80
2018-05-09T17:23:32.052Z,36.00
2018-05-09T17:26:01.552Z,36.60
2018-05-09T17:28:31.070Z,37.10
2018-05-09T17:30:59.805Z,37.10
2018-05-09T17:33:28.607Z,38.00
2018-05-09T17:35:57.377Z,37.40
2018-05-09T17:38:26.175Z,38.30
2018-05-09T17:40:55.631Z,38.40
2018-05-09T17:43:25.142Z,38.80
2018-05-09T17:45:53.952Z,38.80
2018-05-09T17:48:23.025Z,38.30
2018-05-09T17:50:51.792Z,38.30
2018-05-09T17:53:20.532Z,38.20
2018-05-09T17:55:49.347Z,38.60
2018-05-09T17:58:18.734Z,38.50
2018-05-09T18:00:47.512Z,39.00
2018-05-09T18:03:16.272Z,38.70
2018-05-09T18:05:45.208Z,38.80
2018-05-09T18:08:13.978Z,39.40
2018-05-09T18:10:42.757Z,40.10
2018-05-09T18:13:12.307Z,41.00
2018-05-09T18:15:41.051Z,40.90
2018-05-09T18:18:11.495Z,41.90
2018-05-09T18:20:40.257Z,41.90
2018-05-09T18:23:09.010Z,42.50
2018-05-09T18:25:37.896Z,43.30
2018-05-09T18:28:06.641Z,43.30
2018-05-09T18:30:35.397Z,42.80
2018-05-09T18:33:04.950Z,42.80
2018-05-09T18:35:33.695Z,42.80
2018-05-09T18:38:02.414Z,43.50
2018-05-09T18:40:31.313Z,43.30
2018-05-09T18:43:00.066Z,43.50
2018-05-09T18:45:28.867Z,43.60
2018-05-09T18:47:58.361Z,43.90
2018-05-09T18:50:27.117Z,43.90
2018-05-09T18:52:56.207Z,45.20
2018-05-09T18:55:24.969Z,45.20
2018-05-09T18:57:53.727Z,45.50
2018-05-09T19:00:23.408Z,45.90
2018-05-09T19:02:53.301Z,45.40
2018-05-09T19:05:23.974Z,45.00
2018-05-09T19:07:53.587Z,45.30
2018-05-09T19:10:24.156Z,46.50
2018-05-09T19:12:53.489Z,46.50
2018-05-09T19:15:23.295Z,46.60
2018-05-09T19:17:52.674Z,46.20
2018-05-09T19:20:21.440Z,46.30
2018-05-09T19:22:50.181Z,45.70
2018-05-09T19:25:18.960Z,46.50
2018-05-09T19:27:47.887Z,46.10
2018-05-09T19:30:16.666Z,46.20
2018-05-09T19:32:45.449Z,46.80
2018-05-09T19:35:14.329Z,46.00
2018-05-09T19:37:43.085Z,46.20
2018-05-09T19:40:12.687Z,46.30
2018-05-09T19:42:41.471Z,46.20
2018-05-09T19:45:10.274Z,46.60
2018-05-09T19:47:39.050Z,47.30
2018-05-09T19:50:08.847Z,48.00
2018-05-09T19:52:37.584Z,48.50
2018-05-09T19:55:06.358Z,48.60
2018-05-09T19:57:35.063Z,48.20
2018-05-09T20:00:03.830Z,48.10
2018-05-09T20:02:32.578Z,48.10
2018-05-09T20:05:01.376Z,47.60
2018-05-09T20:07:30.489Z,47.90
2018-05-09T20:09:59.992Z,49.00
2018-05-09T20:12:29.533Z,48.70
2018-05-09T20:14:58.288Z,48.70
2018-05-09T20:17:27.708Z,48.40
2018-05-09T20:19:56.441Z,48.30
2018-05-09T20:22:25.845Z,48.30
2018-05-09T20:24:55.615Z,48.60
2018-05-09T20:27:24.389Z,48.90
2018-05-09T20:29:53.855Z,48.70
2018-05-09T20:32:34.337Z,48.80
2018-05-09T20:35:03.844Z,49.10
2018-05-09T20:37:32.666Z,48.80
2018-05-09T20:40:01.461Z,49.20
2018-05-09T20:42:30.219Z,49.20
2018-05-09T20:44:58.984Z,49.10
2018-05-09T20:47:28.293Z,49.40
2018-05-09T20:49:57.063Z,49.50
2018-05-09T20:52:25.904Z,50.10
2018-05-09T20:54:55.414Z,50.70
2018-05-09T20:57:24.176Z,50.70
2018-05-09T20:59:54.104Z,51.00
2018-05-09T21:02:24.833Z,50.90
2018-05-09T21:04:56.461Z,50.90
2018-05-09T21:07:25.244Z,50.50
2018-05-09T21:09:54.007Z,50.30
2018-05-09T21:12:22.748Z,50.80
2018-05-09T21:14:52.135Z,51.40
2018-05-09T21:17:21.018Z,51.30
2018-05-09T21:19:49.750Z,51.40
2018-05-09T21:22:19.291Z,51.40
2018-05-09T21:24:49.447Z,51.40
2018-05-09T21:27:18.320Z,51.60
2018-05-09T21:29:47.784Z,50.90
2018-05-09T21:32:17.393Z,50.90
2018-05-09T21:34:46.162Z,50.80
2018-05-09T21:37:16.088Z,51.30
2018-05-09T21:39:46.712Z,52.20
2018-05-09T21:42:16.228Z,51.80
2018-05-09T21:44:45.364Z,51.80
2018-05-09T21:47:16.049Z,51.20
2018-05-09T21:49:44.785Z,51.20
2018-05-09T21:52:13.549Z,51.60
2018-05-09T21:54:42.466Z,51.80
2018-05-09T21:57:11.904Z,51.80
2018-05-09T21:59:41.159Z,51.30
2018-05-09T22:02:10.111Z,51.30
2018-05-09T22:04:38.896Z,51.40
2018-05-09T22:07:07.625Z,51.30
2018-05-09T22:09:37.814Z,51.30
2018-05-09T22:12:06.641Z,51.30
2018-05-09T22:14:35.402Z,51.90
2018-05-09T22:17:04.288Z,51.70
2018-05-09T22:19:33.072Z,51.70
2018-05-09T22:22:02.602Z,52.40
2018-05-09T22:24:31.396Z,52.30
2018-05-09T22:27:00.148Z,51.90
2018-05-09T22:29:29.693Z,51.80
2018-05-09T22:31:58.532Z,51.80
2018-05-09T22:34:27.342Z,51.70
2018-05-09T22:36:56.252Z,52.30
2018-05-09T22:39:25.216Z,52.70
2018-05-09T22:41:55.524Z,53.30
2018-05-09T22:44:24.420Z,53.40
2018-05-09T22:46:53.473Z,52.80
2018-05-09T22:49:22.297Z,53.50
2018-05-09T22:51:52.881Z,53.90
2018-05-09T22:54:21.610Z,53.10
2018-05-09T22:56:50.405Z,52.90
2018-05-09T22:59:19.277Z,53.00
2018-05-09T23:01:48.332Z,52.70
2018-05-09T23:04:17.103Z,52.50
2018-05-09T23:06:46.751Z,52.60
2018-05-09T23:09:15.499Z,52.50
2018-05-09T23:11:44.320Z,53.30
2018-05-09T23:14:13.804Z,53.50
2018-05-09T23:16:43.333Z,53.60
2018-05-09T23:19:12.161Z,53.60
2018-05-09T23:21:41.034Z,53.70
2018-05-09T23:24:10.005Z,53.70
2018-05-09T23:26:38.764Z,53.50
2018-05-09T23:29:08.293Z,53.50
2018-05-09T23:31:37.005Z,53.50
2018-05-09T23:34:06.598Z,53.20
2018-05-09T23:36:35.340Z,53.20
2018-05-09T23:39:04.288Z,53.60
2018-05-09T23:41:33.171Z,53.10
2018-05-09T23:44:01.942Z,53.70
2018-05-09T23:46:30.803Z,53.80
2018-05-09T23:49:00.064Z,54.10
2018-05-09T23:51:28.826Z,53.90
2018-05-09T23:53:57.626Z,54.40
2018-05-09T23:56:26.366Z,55.00
2018-05-09T23:58:55.181Z,54.50
